sensor_id;sensor_type;location;lat;lon;timestamp;P1;durP1;ratioP1;P2;durP2;ratioP2
13114;SDS011;6623;52.120;8.660;2023-02-28T00:02:20;8.27;;;5.47;;
13114;SDS011;6623;52.120;8.660;2023-02-28T00:04:46;6.40;;;5.10;;
13114;SDS011;6623;52.120;8.660;2023-02-28T00:07:25;8.50;;;5.00;;
13114;SDS011;6623;52.120;8.660;2023-02-28T00:09:52;7.87;;;5.23;;
13114;SDS011;6623;52.120;8.660;2023-02-28T00:12:18;7.70;;;5.23;;
13114;SDS011;6623;52.120;8.660;2023-02-28T00:14:43;11.40;;;7.43;;
13114;SDS011;6623;52.120;8.660;2023-02-28T00:17:09;10.47;;;6.13;;
13114;SDS011;6623;52.120;8.660;2023-02-28T00:19:34;9.47;;;6.67;;
13114;SDS011;6623;52.120;8.660;2023-02-28T00:22:00;9.03;;;6.10;;
13114;SDS011;6623;52.120;8.660;2023-02-28T00:24:25;7.57;;;5.77;;
13114;SDS011;6623;52.120;8.660;2023-02-28T00:26:51;6.77;;;5.67;;
13114;SDS011;6623;52.120;8.660;2023-02-28T00:29:16;7.00;;;5.20;;
13114;SDS011;6623;52.120;8.660;2023-02-28T00:31:42;7.47;;;5.80;;
13114;SDS011;6623;52.120;8.660;2023-02-28T00:34:07;8.00;;;5.83;;
13114;SDS011;6623;52.120;8.660;2023-02-28T00:36:33;7.37;;;5.57;;
13114;SDS011;6623;52.120;8.660;2023-02-28T00:38:58;9.43;;;5.70;;
13114;SDS011;6623;52.120;8.660;2023-02-28T00:41:24;8.60;;;5.40;;
13114;SDS011;6623;52.120;8.660;2023-02-28T00:43:49;8.70;;;5.37;;
13114;SDS011;6623;52.120;8.660;2023-02-28T00:46:15;9.40;;;5.73;;
13114;SDS011;6623;52.120;8.660;2023-02-28T00:48:40;9.70;;;6.00;;
13114;SDS011;6623;52.120;8.660;2023-02-28T00:51:06;6.83;;;5.60;;
13114;SDS011;6623;52.120;8.660;2023-02-28T00:53:31;6.63;;;5.37;;
13114;SDS011;6623;52.120;8.660;2023-02-28T00:55:57;9.13;;;5.43;;
13114;SDS011;6623;52.120;8.660;2023-02-28T00:58:23;8.70;;;5.43;;
13114;SDS011;6623;52.120;8.660;2023-02-28T01:00:50;7.43;;;5.20;;
13114;SDS011;6623;52.120;8.660;2023-02-28T01:03:16;7.25;;;5.53;;
13114;SDS011;6623;52.120;8.660;2023-02-28T01:05:45;8.07;;;5.38;;
13114;SDS011;6623;52.120;8.660;2023-02-28T01:08:12;6.63;;;5.25;;
13114;SDS011;6623;52.120;8.660;2023-02-28T01:10:38;9.10;;;5.50;;
13114;SDS011;6623;52.120;8.660;2023-02-28T01:13:04;8.47;;;5.10;;
13114;SDS011;6623;52.120;8.660;2023-02-28T01:15:30;7.20;;;4.90;;
13114;SDS011;6623;52.120;8.660;2023-02-28T01:17:57;7.53;;;5.40;;
13114;SDS011;6623;52.120;8.660;2023-02-28T01:20:22;6.10;;;5.33;;
13114;SDS011;6623;52.120;8.660;2023-02-28T01:22:48;8.97;;;5.33;;
13114;SDS011;6623;52.120;8.660;2023-02-28T01:25:14;6.93;;;5.40;;
13114;SDS011;6623;52.120;8.660;2023-02-28T01:27:39;7.77;;;5.30;;
13114;SDS011;6623;52.120;8.660;2023-02-28T01:30:06;7.53;;;5.70;;
13114;SDS011;6623;52.120;8.660;2023-02-28T01:32:32;10.40;;;5.82;;
13114;SDS011;6623;52.120;8.660;2023-02-28T01:34:58;7.70;;;5.10;;
13114;SDS011;6623;52.120;8.660;2023-02-28T01:37:23;6.20;;;5.30;;
13114;SDS011;6623;52.120;8.660;2023-02-28T01:39:49;8.03;;;5.60;;
13114;SDS011;6623;52.120;8.660;2023-02-28T01:42:14;7.90;;;5.80;;
13114;SDS011;6623;52.120;8.660;2023-02-28T01:47:38;7.37;;;5.27;;
13114;SDS011;6623;52.120;8.660;2023-02-28T01:50:08;7.60;;;5.35;;
13114;SDS011;6623;52.120;8.660;2023-02-28T01:52:38;6.63;;;5.32;;
13114;SDS011;6623;52.120;8.660;2023-02-28T01:55:04;8.93;;;5.17;;
13114;SDS011;6623;52.120;8.660;2023-02-28T01:57:35;7.70;;;5.78;;
13114;SDS011;6623;52.120;8.660;2023-02-28T02:00:09;7.53;;;5.57;;
13114;SDS011;6623;52.120;8.660;2023-02-28T02:02:41;7.68;;;5.63;;
13114;SDS011;6623;52.120;8.660;2023-02-28T02:05:10;6.90;;;5.68;;
13114;SDS011;6623;52.120;8.660;2023-02-28T02:07:40;7.07;;;5.30;;
13114;SDS011;6623;52.120;8.660;2023-02-28T02:15:36;9.75;;;5.50;;
13114;SDS011;6623;52.120;8.660;2023-02-28T02:18:23;7.20;;;5.72;;
13114;SDS011;6623;52.120;8.660;2023-02-28T02:24:03;7.78;;;5.60;;
13114;SDS011;6623;52.120;8.660;2023-02-28T02:27:16;7.25;;;5.32;;
13114;SDS011;6623;52.120;8.660;2023-02-28T02:29:54;7.47;;;4.95;;
13114;SDS011;6623;52.120;8.660;2023-02-28T02:35:34;7.13;;;4.70;;
13114;SDS011;6623;52.120;8.660;2023-02-28T02:44:30;9.98;;;5.32;;
13114;SDS011;6623;52.120;8.660;2023-02-28T02:47:13;7.00;;;5.03;;
13114;SDS011;6623;52.120;8.660;2023-02-28T02:49:43;7.65;;;5.05;;
13114;SDS011;6623;52.120;8.660;2023-02-28T02:52:14;7.15;;;5.25;;
13114;SDS011;6623;52.120;8.660;2023-02-28T02:54:43;7.57;;;5.72;;
13114;SDS011;6623;52.120;8.660;2023-02-28T02:57:20;6.35;;;5.30;;
13114;SDS011;6623;52.120;8.660;2023-02-28T02:59:49;6.82;;;5.20;;
13114;SDS011;6623;52.120;8.660;2023-02-28T03:02:17;8.52;;;5.55;;
13114;SDS011;6623;52.120;8.660;2023-02-28T03:04:53;6.55;;;5.15;;
13114;SDS011;6623;52.120;8.660;2023-02-28T03:07:25;7.53;;;4.85;;
13114;SDS011;6623;52.120;8.660;2023-02-28T03:09:55;6.35;;;4.93;;
13114;SDS011;6623;52.120;8.660;2023-02-28T03:12:23;5.10;;;4.60;;
13114;SDS011;6623;52.120;8.660;2023-02-28T03:23:04;8.95;;;5.30;;
13114;SDS011;6623;52.120;8.660;2023-02-28T03:25:51;6.75;;;4.90;;
13114;SDS011;6623;52.120;8.660;2023-02-28T03:28:37;8.13;;;5.13;;
13114;SDS011;6623;52.120;8.660;2023-02-28T03:31:38;7.60;;;4.90;;
13114;SDS011;6623;52.120;8.660;2023-02-28T03:34:10;8.55;;;5.28;;
13114;SDS011;6623;52.120;8.660;2023-02-28T03:36:50;8.43;;;5.90;;
13114;SDS011;6623;52.120;8.660;2023-02-28T03:39:21;8.60;;;6.00;;
13114;SDS011;6623;52.120;8.660;2023-02-28T03:42:02;11.02;;;5.95;;
13114;SDS011;6623;52.120;8.660;2023-02-28T03:44:32;7.63;;;5.72;;
13114;SDS011;6623;52.120;8.660;2023-02-28T03:47:07;9.05;;;6.15;;
13114;SDS011;6623;52.120;8.660;2023-02-28T03:49:37;11.93;;;6.38;;
13114;SDS011;6623;52.120;8.660;2023-02-28T03:52:12;8.90;;;5.78;;
13114;SDS011;6623;52.120;8.660;2023-02-28T03:54:46;8.52;;;6.03;;
13114;SDS011;6623;52.120;8.660;2023-02-28T03:59:45;9.63;;;6.57;;
13114;SDS011;6623;52.120;8.660;2023-02-28T04:02:17;11.60;;;6.57;;
13114;SDS011;6623;52.120;8.660;2023-02-28T04:04:43;8.07;;;6.17;;
13114;SDS011;6623;52.120;8.660;2023-02-28T04:07:13;10.73;;;6.43;;
13114;SDS011;6623;52.120;8.660;2023-02-28T04:09:40;7.25;;;5.65;;
13114;SDS011;6623;52.120;8.660;2023-02-28T04:12:06;7.82;;;6.20;;
13114;SDS011;6623;52.120;8.660;2023-02-28T04:14:32;9.57;;;7.77;;
13114;SDS011;6623;52.120;8.660;2023-02-28T04:16:57;9.10;;;6.60;;
13114;SDS011;6623;52.120;8.660;2023-02-28T04:19:23;7.70;;;6.23;;
13114;SDS011;6623;52.120;8.660;2023-02-28T04:21:50;10.17;;;6.53;;
13114;SDS011;6623;52.120;8.660;2023-02-28T04:24:18;9.48;;;6.57;;
13114;SDS011;6623;52.120;8.660;2023-02-28T04:26:53;8.63;;;6.10;;
13114;SDS011;6623;52.120;8.660;2023-02-28T04:29:21;9.25;;;6.03;;
13114;SDS011;6623;52.120;8.660;2023-02-28T04:31:52;7.97;;;6.32;;
13114;SDS011;6623;52.120;8.660;2023-02-28T04:34:18;8.27;;;6.28;;
13114;SDS011;6623;52.120;8.660;2023-02-28T04:36:46;11.18;;;6.80;;
13114;SDS011;6623;52.120;8.660;2023-02-28T04:39:13;8.60;;;6.20;;
13114;SDS011;6623;52.120;8.660;2023-02-28T04:41:40;12.82;;;7.10;;
13114;SDS011;6623;52.120;8.660;2023-02-28T04:44:05;9.57;;;7.13;;
13114;SDS011;6623;52.120;8.660;2023-02-28T04:46:31;11.23;;;6.83;;
13114;SDS011;6623;52.120;8.660;2023-02-28T04:48:56;10.93;;;6.67;;
13114;SDS011;6623;52.120;8.660;2023-02-28T04:51:22;12.57;;;8.00;;
13114;SDS011;6623;52.120;8.660;2023-02-28T04:53:47;9.93;;;7.60;;
13114;SDS011;6623;52.120;8.660;2023-02-28T04:56:14;11.37;;;6.87;;
13114;SDS011;6623;52.120;8.660;2023-02-28T04:58:41;9.45;;;6.63;;
13114;SDS011;6623;52.120;8.660;2023-02-28T05:01:14;9.77;;;7.20;;
13114;SDS011;6623;52.120;8.660;2023-02-28T05:03:43;8.15;;;6.53;;
13114;SDS011;6623;52.120;8.660;2023-02-28T05:06:09;10.70;;;7.00;;
13114;SDS011;6623;52.120;8.660;2023-02-28T05:08:36;9.73;;;6.97;;
13114;SDS011;6623;52.120;8.660;2023-02-28T05:11:02;9.40;;;6.33;;
13114;SDS011;6623;52.120;8.660;2023-02-28T05:13:28;9.15;;;6.95;;
13114;SDS011;6623;52.120;8.660;2023-02-28T05:15:55;9.20;;;6.80;;
13114;SDS011;6623;52.120;8.660;2023-02-28T05:18:21;10.38;;;7.10;;
13114;SDS011;6623;52.120;8.660;2023-02-28T05:20:46;10.33;;;7.23;;
13114;SDS011;6623;52.120;8.660;2023-02-28T05:23:12;8.13;;;6.57;;
13114;SDS011;6623;52.120;8.660;2023-02-28T05:25:38;9.02;;;6.72;;
13114;SDS011;6623;52.120;8.660;2023-02-28T05:28:05;9.77;;;7.10;;
13114;SDS011;6623;52.120;8.660;2023-02-28T05:30:30;10.77;;;6.00;;
13114;SDS011;6623;52.120;8.660;2023-02-28T05:32:56;9.05;;;7.00;;
13114;SDS011;6623;52.120;8.660;2023-02-28T05:35:23;11.10;;;6.55;;
13114;SDS011;6623;52.120;8.660;2023-02-28T05:37:49;10.02;;;7.05;;
13114;SDS011;6623;52.120;8.660;2023-02-28T05:40:14;10.27;;;6.97;;
13114;SDS011;6623;52.120;8.660;2023-02-28T05:42:40;8.73;;;6.80;;
13114;SDS011;6623;52.120;8.660;2023-02-28T05:45:06;8.60;;;6.50;;
13114;SDS011;6623;52.120;8.660;2023-02-28T05:47:32;10.15;;;6.80;;
13114;SDS011;6623;52.120;8.660;2023-02-28T05:49:58;9.50;;;7.03;;
13114;SDS011;6623;52.120;8.660;2023-02-28T05:52:24;11.30;;;7.18;;
13114;SDS011;6623;52.120;8.660;2023-02-28T05:54:50;7.83;;;6.73;;
13114;SDS011;6623;52.120;8.660;2023-02-28T05:57:15;8.33;;;6.27;;
13114;SDS011;6623;52.120;8.660;2023-02-28T05:59:41;9.03;;;6.77;;
13114;SDS011;6623;52.120;8.660;2023-02-28T06:02:10;10.63;;;6.83;;
13114;SDS011;6623;52.120;8.660;2023-02-28T06:04:38;10.32;;;6.72;;
13114;SDS011;6623;52.120;8.660;2023-02-28T06:07:05;9.88;;;6.95;;
13114;SDS011;6623;52.120;8.660;2023-02-28T06:09:31;8.77;;;6.77;;
13114;SDS011;6623;52.120;8.660;2023-02-28T06:11:57;9.80;;;7.33;;
13114;SDS011;6623;52.120;8.660;2023-02-28T06:14:24;13.48;;;7.13;;
13114;SDS011;6623;52.120;8.660;2023-02-28T06:16:49;11.37;;;6.60;;
13114;SDS011;6623;52.120;8.660;2023-02-28T06:19:15;14.50;;;7.80;;
13114;SDS011;6623;52.120;8.660;2023-02-28T06:21:40;11.83;;;7.07;;
13114;SDS011;6623;52.120;8.660;2023-02-28T06:24:06;10.40;;;7.37;;
13114;SDS011;6623;52.120;8.660;2023-02-28T06:26:32;10.53;;;7.83;;
13114;SDS011;6623;52.120;8.660;2023-02-28T06:28:58;9.67;;;7.27;;
13114;SDS011;6623;52.120;8.660;2023-02-28T06:31:25;13.73;;;8.13;;
13114;SDS011;6623;52.120;8.660;2023-02-28T06:33:51;10.33;;;6.90;;
13114;SDS011;6623;52.120;8.660;2023-02-28T06:36:17;10.17;;;7.57;;
13114;SDS011;6623;52.120;8.660;2023-02-28T06:38:43;17.20;;;6.93;;
13114;SDS011;6623;52.120;8.660;2023-02-28T06:41:10;10.52;;;6.80;;
13114;SDS011;6623;52.120;8.660;2023-02-28T06:43:38;12.77;;;6.50;;
13114;SDS011;6623;52.120;8.660;2023-02-28T06:46:06;10.73;;;7.40;;
13114;SDS011;6623;52.120;8.660;2023-02-28T06:48:33;10.25;;;6.55;;
13114;SDS011;6623;52.120;8.660;2023-02-28T06:51:06;12.35;;;7.03;;
13114;SDS011;6623;52.120;8.660;2023-02-28T06:53:33;10.90;;;7.20;;
13114;SDS011;6623;52.120;8.660;2023-02-28T06:55:58;10.10;;;6.40;;
13114;SDS011;6623;52.120;8.660;2023-02-28T06:58:24;12.07;;;7.37;;
13114;SDS011;6623;52.120;8.660;2023-02-28T07:00:50;11.00;;;7.83;;
13114;SDS011;6623;52.120;8.660;2023-02-28T07:03:17;10.02;;;7.38;;
13114;SDS011;6623;52.120;8.660;2023-02-28T07:05:43;9.82;;;6.80;;
13114;SDS011;6623;52.120;8.660;2023-02-28T07:08:09;10.75;;;6.40;;
13114;SDS011;6623;52.120;8.660;2023-02-28T07:10:38;9.57;;;6.87;;
13114;SDS011;6623;52.120;8.660;2023-02-28T07:13:04;8.45;;;5.93;;
13114;SDS011;6623;52.120;8.660;2023-02-28T07:15:31;10.45;;;6.70;;
13114;SDS011;6623;52.120;8.660;2023-02-28T07:17:56;10.77;;;6.63;;
13114;SDS011;6623;52.120;8.660;2023-02-28T07:20:23;7.23;;;6.23;;
13114;SDS011;6623;52.120;8.660;2023-02-28T07:22:49;9.25;;;6.53;;
13114;SDS011;6623;52.120;8.660;2023-02-28T07:25:21;10.45;;;6.70;;
13114;SDS011;6623;52.120;8.660;2023-02-28T07:27:48;10.27;;;6.38;;
13114;SDS011;6623;52.120;8.660;2023-02-28T07:30:13;10.83;;;7.13;;
13114;SDS011;6623;52.120;8.660;2023-02-28T07:32:39;9.17;;;6.80;;
13114;SDS011;6623;52.120;8.660;2023-02-28T07:35:05;10.50;;;7.03;;
13114;SDS011;6623;52.120;8.660;2023-02-28T07:37:30;12.25;;;7.47;;
13114;SDS011;6623;52.120;8.660;2023-02-28T07:40:01;10.18;;;7.43;;
13114;SDS011;6623;52.120;8.660;2023-02-28T07:42:31;10.65;;;7.47;;
13114;SDS011;6623;52.120;8.660;2023-02-28T07:44:56;12.37;;;8.30;;
13114;SDS011;6623;52.120;8.660;2023-02-28T07:47:22;11.73;;;7.03;;
13114;SDS011;6623;52.120;8.660;2023-02-28T07:49:47;10.40;;;7.40;;
13114;SDS011;6623;52.120;8.660;2023-02-28T07:52:13;11.47;;;7.40;;
13114;SDS011;6623;52.120;8.660;2023-02-28T07:54:38;8.50;;;6.10;;
13114;SDS011;6623;52.120;8.660;2023-02-28T07:57:04;7.67;;;5.10;;
13114;SDS011;6623;52.120;8.660;2023-02-28T07:59:29;6.80;;;4.90;;
13114;SDS011;6623;52.120;8.660;2023-02-28T08:01:56;9.33;;;5.50;;
13114;SDS011;6623;52.120;8.660;2023-02-28T08:04:22;11.15;;;5.60;;
13114;SDS011;6623;52.120;8.660;2023-02-28T08:06:47;7.50;;;5.50;;
13114;SDS011;6623;52.120;8.660;2023-02-28T08:09:13;11.13;;;5.43;;
13114;SDS011;6623;52.120;8.660;2023-02-28T08:11:39;8.02;;;5.30;;
13114;SDS011;6623;52.120;8.660;2023-02-28T08:14:05;7.43;;;5.33;;
13114;SDS011;6623;52.120;8.660;2023-02-28T08:16:30;7.57;;;5.60;;
13114;SDS011;6623;52.120;8.660;2023-02-28T08:18:56;8.00;;;5.20;;
13114;SDS011;6623;52.120;8.660;2023-02-28T08:21:21;7.47;;;5.67;;
13114;SDS011;6623;52.120;8.660;2023-02-28T08:23:47;9.10;;;5.23;;
13114;SDS011;6623;52.120;8.660;2023-02-28T08:26:15;8.07;;;5.53;;
13114;SDS011;6623;52.120;8.660;2023-02-28T08:28:41;9.25;;;5.60;;
13114;SDS011;6623;52.120;8.660;2023-02-28T08:31:11;8.20;;;5.37;;
13114;SDS011;6623;52.120;8.660;2023-02-28T08:33:38;6.72;;;4.88;;
13114;SDS011;6623;52.120;8.660;2023-02-28T08:36:05;11.73;;;5.57;;
13114;SDS011;6623;52.120;8.660;2023-02-28T08:38:32;6.65;;;5.18;;
13114;SDS011;6623;52.120;8.660;2023-02-28T08:40:58;9.03;;;5.17;;
13114;SDS011;6623;52.120;8.660;2023-02-28T08:43:25;9.48;;;4.63;;
13114;SDS011;6623;52.120;8.660;2023-02-28T08:45:52;6.00;;;4.07;;
13114;SDS011;6623;52.120;8.660;2023-02-28T08:48:18;6.65;;;4.28;;
13114;SDS011;6623;52.120;8.660;2023-02-28T08:50:43;6.67;;;4.47;;
13114;SDS011;6623;52.120;8.660;2023-02-28T08:53:09;5.63;;;3.80;;
13114;SDS011;6623;52.120;8.660;2023-02-28T08:55:34;4.73;;;3.93;;
13114;SDS011;6623;52.120;8.660;2023-02-28T08:58:00;9.07;;;4.50;;
13114;SDS011;6623;52.120;8.660;2023-02-28T09:00:26;6.60;;;4.50;;
13114;SDS011;6623;52.120;8.660;2023-02-28T09:02:51;5.43;;;4.37;;
13114;SDS011;6623;52.120;8.660;2023-02-28T09:05:17;4.93;;;3.60;;
13114;SDS011;6623;52.120;8.660;2023-02-28T09:07:43;6.23;;;4.73;;
13114;SDS011;6623;52.120;8.660;2023-02-28T09:10:08;7.27;;;5.10;;
13114;SDS011;6623;52.120;8.660;2023-02-28T09:12:34;7.38;;;5.85;;
13114;SDS011;6623;52.120;8.660;2023-02-28T09:15:00;7.00;;;5.30;;
13114;SDS011;6623;52.120;8.660;2023-02-28T09:17:29;10.03;;;4.50;;
13114;SDS011;6623;52.120;8.660;2023-02-28T09:19:54;10.38;;;5.20;;
13114;SDS011;6623;52.120;8.660;2023-02-28T09:22:20;8.07;;;5.63;;
13114;SDS011;6623;52.120;8.660;2023-02-28T09:24:46;3.57;;;2.30;;
13114;SDS011;6623;52.120;8.660;2023-02-28T09:27:11;2.97;;;2.20;;
13114;SDS011;6623;52.120;8.660;2023-02-28T09:29:37;3.20;;;2.50;;
13114;SDS011;6623;52.120;8.660;2023-02-28T09:32:02;3.47;;;2.80;;
13114;SDS011;6623;52.120;8.660;2023-02-28T09:34:30;7.43;;;2.33;;
13114;SDS011;6623;52.120;8.660;2023-02-28T09:36:56;2.67;;;1.70;;
13114;SDS011;6623;52.120;8.660;2023-02-28T09:39:22;3.23;;;1.67;;
13114;SDS011;6623;52.120;8.660;2023-02-28T09:41:49;1.60;;;1.50;;
13114;SDS011;6623;52.120;8.660;2023-02-28T09:44:22;1.50;;;1.40;;
13114;SDS011;6623;52.120;8.660;2023-02-28T09:46:49;1.43;;;1.20;;
13114;SDS011;6623;52.120;8.660;2023-02-28T09:49:28;1.67;;;1.00;;
13114;SDS011;6623;52.120;8.660;2023-02-28T09:52:17;1.70;;;1.20;;
13114;SDS011;6623;52.120;8.660;2023-02-28T09:54:44;2.83;;;1.50;;
13114;SDS011;6623;52.120;8.660;2023-02-28T09:57:15;1.47;;;1.10;;
13114;SDS011;6623;52.120;8.660;2023-02-28T10:05:51;1.17;;;1.00;;
13114;SDS011;6623;52.120;8.660;2023-02-28T10:10:58;1.80;;;1.13;;
13114;SDS011;6623;52.120;8.660;2023-02-28T10:15:55;1.60;;;1.10;;
13114;SDS011;6623;52.120;8.660;2023-02-28T10:18:46;2.17;;;1.07;;
13114;SDS011;6623;52.120;8.660;2023-02-28T10:23:55;2.20;;;1.40;;
13114;SDS011;6623;52.120;8.660;2023-02-28T10:26:27;3.93;;;1.53;;
13114;SDS011;6623;52.120;8.660;2023-02-28T10:28:58;1.40;;;1.30;;
13114;SDS011;6623;52.120;8.660;2023-02-28T10:31:25;1.77;;;1.10;;
13114;SDS011;6623;52.120;8.660;2023-02-28T10:33:51;2.63;;;1.20;;
13114;SDS011;6623;52.120;8.660;2023-02-28T10:36:18;1.67;;;1.20;;
13114;SDS011;6623;52.120;8.660;2023-02-28T10:38:46;2.53;;;1.37;;
13114;SDS011;6623;52.120;8.660;2023-02-28T10:41:13;1.30;;;1.20;;
13114;SDS011;6623;52.120;8.660;2023-02-28T10:43:41;2.40;;;1.10;;
13114;SDS011;6623;52.120;8.660;2023-02-28T10:48:34;1.40;;;1.30;;
13114;SDS011;6623;52.120;8.660;2023-02-28T10:51:01;1.43;;;1.13;;
13114;SDS011;6623;52.120;8.660;2023-02-28T10:56:15;1.57;;;1.07;;
13114;SDS011;6623;52.120;8.660;2023-02-28T11:03:55;3.10;;;1.13;;
13114;SDS011;6623;52.120;8.660;2023-02-28T11:06:23;1.50;;;1.13;;
13114;SDS011;6623;52.120;8.660;2023-02-28T11:09:00;1.80;;;1.20;;
13114;SDS011;6623;52.120;8.660;2023-02-28T11:11:41;1.97;;;1.30;;
13114;SDS011;6623;52.120;8.660;2023-02-28T11:14:16;2.10;;;1.10;;
13114;SDS011;6623;52.120;8.660;2023-02-28T11:16:47;1.17;;;1.07;;
13114;SDS011;6623;52.120;8.660;2023-02-28T11:19:22;1.30;;;1.00;;
13114;SDS011;6623;52.120;8.660;2023-02-28T11:21:58;1.50;;;1.07;;
13114;SDS011;6623;52.120;8.660;2023-02-28T11:26:53;1.80;;;1.30;;
13114;SDS011;6623;52.120;8.660;2023-02-28T11:29:21;1.83;;;1.30;;
13114;SDS011;6623;52.120;8.660;2023-02-28T11:32:05;1.33;;;1.00;;
13114;SDS011;6623;52.120;8.660;2023-02-28T11:34:41;2.13;;;1.30;;
13114;SDS011;6623;52.120;8.660;2023-02-28T11:37:11;1.60;;;1.20;;
13114;SDS011;6623;52.120;8.660;2023-02-28T11:39:39;2.70;;;1.50;;
13114;SDS011;6623;52.120;8.660;2023-02-28T11:42:11;1.70;;;1.40;;
13114;SDS011;6623;52.120;8.660;2023-02-28T11:45:01;1.57;;;1.13;;
13114;SDS011;6623;52.120;8.660;2023-02-28T11:53:20;3.77;;;1.33;;
13114;SDS011;6623;52.120;8.660;2023-02-28T11:55:49;2.90;;;1.30;;
13114;SDS011;6623;52.120;8.660;2023-02-28T12:01:18;3.50;;;1.50;;
13114;SDS011;6623;52.120;8.660;2023-02-28T12:06:52;1.40;;;1.20;;
13114;SDS011;6623;52.120;8.660;2023-02-28T12:12:34;2.40;;;1.40;;
13114;SDS011;6623;52.120;8.660;2023-02-28T12:18:27;1.40;;;1.30;;
13114;SDS011;6623;52.120;8.660;2023-02-28T12:27:00;1.70;;;1.20;;
13114;SDS011;6623;52.120;8.660;2023-02-28T12:29:32;2.63;;;1.40;;
13114;SDS011;6623;52.120;8.660;2023-02-28T12:32:21;1.73;;;1.17;;
13114;SDS011;6623;52.120;8.660;2023-02-28T12:35:11;1.50;;;1.27;;
13114;SDS011;6623;52.120;8.660;2023-02-28T12:37:50;1.60;;;1.20;;
13114;SDS011;6623;52.120;8.660;2023-02-28T12:40:23;1.37;;;1.10;;
13114;SDS011;6623;52.120;8.660;2023-02-28T12:42:56;2.33;;;1.40;;
13114;SDS011;6623;52.120;8.660;2023-02-28T12:45:27;1.80;;;1.30;;
13114;SDS011;6623;52.120;8.660;2023-02-28T12:48:14;2.80;;;1.30;;
13114;SDS011;6623;52.120;8.660;2023-02-28T12:50:44;2.10;;;1.30;;
13114;SDS011;6623;52.120;8.660;2023-02-28T12:53:25;2.17;;;1.30;;
13114;SDS011;6623;52.120;8.660;2023-02-28T12:56:19;1.40;;;1.20;;
13114;SDS011;6623;52.120;8.660;2023-02-28T12:58:56;2.87;;;1.20;;
13114;SDS011;6623;52.120;8.660;2023-02-28T13:04:22;2.30;;;1.30;;
13114;SDS011;6623;52.120;8.660;2023-02-28T13:07:13;1.87;;;0.90;;
13114;SDS011;6623;52.120;8.660;2023-02-28T13:09:53;1.43;;;1.20;;
13114;SDS011;6623;52.120;8.660;2023-02-28T13:12:21;1.83;;;1.37;;
13114;SDS011;6623;52.120;8.660;2023-02-28T13:14:48;3.67;;;1.30;;
13114;SDS011;6623;52.120;8.660;2023-02-28T13:17:21;3.30;;;1.60;;
13114;SDS011;6623;52.120;8.660;2023-02-28T13:27:37;2.17;;;1.30;;
13114;SDS011;6623;52.120;8.660;2023-02-28T13:58:03;1.43;;;1.33;;
13114;SDS011;6623;52.120;8.660;2023-02-28T14:00:57;2.63;;;1.50;;
13114;SDS011;6623;52.120;8.660;2023-02-28T14:06:36;2.27;;;1.50;;
13114;SDS011;6623;52.120;8.660;2023-02-28T14:11:50;1.83;;;1.40;;
13114;SDS011;6623;52.120;8.660;2023-02-28T14:14:53;2.40;;;1.50;;
13114;SDS011;6623;52.120;8.660;2023-02-28T14:17:05;2.37;;;1.50;;
13114;SDS011;6623;52.120;8.660;2023-02-28T14:19:37;2.07;;;1.23;;
13114;SDS011;6623;52.120;8.660;2023-02-28T14:22:09;1.87;;;1.20;;
13114;SDS011;6623;52.120;8.660;2023-02-28T14:27:40;2.30;;;1.60;;
13114;SDS011;6623;52.120;8.660;2023-02-28T14:30:26;2.07;;;1.60;;
13114;SDS011;6623;52.120;8.660;2023-02-28T14:33:05;1.47;;;1.20;;
13114;SDS011;6623;52.120;8.660;2023-02-28T14:38:29;2.10;;;1.40;;
13114;SDS011;6623;52.120;8.660;2023-02-28T14:41:03;3.30;;;1.50;;
13114;SDS011;6623;52.120;8.660;2023-02-28T14:43:46;1.57;;;1.40;;
13114;SDS011;6623;52.120;8.660;2023-02-28T14:46:17;2.73;;;1.50;;
13114;SDS011;6623;52.120;8.660;2023-02-28T14:48:47;1.43;;;1.33;;
13114;SDS011;6623;52.120;8.660;2023-02-28T14:51:17;2.90;;;1.70;;
13114;SDS011;6623;52.120;8.660;2023-02-28T14:53:46;4.57;;;1.57;;
13114;SDS011;6623;52.120;8.660;2023-02-28T14:56:26;1.80;;;1.57;;
13114;SDS011;6623;52.120;8.660;2023-02-28T14:58:57;1.33;;;1.23;;
13114;SDS011;6623;52.120;8.660;2023-02-28T15:01:23;4.37;;;1.83;;
13114;SDS011;6623;52.120;8.660;2023-02-28T15:04:00;2.20;;;1.50;;
13114;SDS011;6623;52.120;8.660;2023-02-28T15:06:28;1.77;;;1.60;;
13114;SDS011;6623;52.120;8.660;2023-02-28T15:09:11;2.27;;;1.67;;
13114;SDS011;6623;52.120;8.660;2023-02-28T15:11:40;2.77;;;1.30;;
13114;SDS011;6623;52.120;8.660;2023-02-28T15:14:13;2.53;;;1.70;;
13114;SDS011;6623;52.120;8.660;2023-02-28T15:16:44;2.90;;;1.53;;
13114;SDS011;6623;52.120;8.660;2023-02-28T15:19:20;3.40;;;1.60;;
13114;SDS011;6623;52.120;8.660;2023-02-28T15:21:51;2.80;;;1.57;;
13114;SDS011;6623;52.120;8.660;2023-02-28T15:24:42;4.00;;;1.80;;
13114;SDS011;6623;52.120;8.660;2023-02-28T15:27:15;2.17;;;1.50;;
13114;SDS011;6623;52.120;8.660;2023-02-28T15:29:50;2.70;;;1.50;;
13114;SDS011;6623;52.120;8.660;2023-02-28T15:32:26;2.70;;;1.93;;
13114;SDS011;6623;52.120;8.660;2023-02-28T15:37:53;1.97;;;1.50;;
13114;SDS011;6623;52.120;8.660;2023-02-28T15:43:06;2.40;;;1.63;;
13114;SDS011;6623;52.120;8.660;2023-02-28T15:45:51;3.53;;;1.90;;
13114;SDS011;6623;52.120;8.660;2023-02-28T15:48:29;4.10;;;1.80;;
13114;SDS011;6623;52.120;8.660;2023-02-28T15:51:16;1.67;;;1.40;;
13114;SDS011;6623;52.120;8.660;2023-02-28T15:53:47;2.33;;;1.70;;
13114;SDS011;6623;52.120;8.660;2023-02-28T15:56:20;3.37;;;1.70;;
13114;SDS011;6623;52.120;8.660;2023-02-28T15:58:53;4.17;;;1.90;;
13114;SDS011;6623;52.120;8.660;2023-02-28T16:01:27;2.57;;;1.73;;
13114;SDS011;6623;52.120;8.660;2023-02-28T16:03:56;2.57;;;1.63;;
13114;SDS011;6623;52.120;8.660;2023-02-28T16:06:28;2.80;;;1.67;;
13114;SDS011;6623;52.120;8.660;2023-02-28T16:08:58;3.90;;;1.60;;
13114;SDS011;6623;52.120;8.660;2023-02-28T16:11:24;2.80;;;1.77;;
13114;SDS011;6623;52.120;8.660;2023-02-28T16:13:50;1.90;;;1.60;;
13114;SDS011;6623;52.120;8.660;2023-02-28T16:16:17;2.07;;;1.60;;
13114;SDS011;6623;52.120;8.660;2023-02-28T16:18:45;3.03;;;1.87;;
13114;SDS011;6623;52.120;8.660;2023-02-28T16:21:11;3.97;;;1.87;;
13114;SDS011;6623;52.120;8.660;2023-02-28T16:23:36;2.53;;;1.80;;
13114;SDS011;6623;52.120;8.660;2023-02-28T16:26:02;2.47;;;1.77;;
13114;SDS011;6623;52.120;8.660;2023-02-28T16:28:33;2.43;;;1.80;;
13114;SDS011;6623;52.120;8.660;2023-02-28T16:31:02;3.50;;;1.83;;
13114;SDS011;6623;52.120;8.660;2023-02-28T16:33:29;2.07;;;1.77;;
13114;SDS011;6623;52.120;8.660;2023-02-28T16:35:56;2.20;;;1.70;;
13114;SDS011;6623;52.120;8.660;2023-02-28T16:38:22;3.23;;;1.83;;
13114;SDS011;6623;52.120;8.660;2023-02-28T16:40:49;2.60;;;1.70;;
13114;SDS011;6623;52.120;8.660;2023-02-28T16:43:17;2.97;;;1.73;;
13114;SDS011;6623;52.120;8.660;2023-02-28T16:45:46;2.27;;;1.77;;
13114;SDS011;6623;52.120;8.660;2023-02-28T16:48:12;2.83;;;2.03;;
13114;SDS011;6623;52.120;8.660;2023-02-28T16:50:40;4.60;;;2.50;;
13114;SDS011;6623;52.120;8.660;2023-02-28T16:53:07;3.40;;;2.30;;
13114;SDS011;6623;52.120;8.660;2023-02-28T16:55:32;3.50;;;2.43;;
13114;SDS011;6623;52.120;8.660;2023-02-28T16:58:00;3.77;;;2.40;;
13114;SDS011;6623;52.120;8.660;2023-02-28T17:00:27;4.83;;;2.47;;
13114;SDS011;6623;52.120;8.660;2023-02-28T17:02:54;4.00;;;2.30;;
13114;SDS011;6623;52.120;8.660;2023-02-28T17:05:20;5.20;;;2.47;;
13114;SDS011;6623;52.120;8.660;2023-02-28T17:07:47;3.20;;;2.30;;
13114;SDS011;6623;52.120;8.660;2023-02-28T17:10:17;2.90;;;2.10;;
13114;SDS011;6623;52.120;8.660;2023-02-28T17:12:45;3.27;;;2.10;;
13114;SDS011;6623;52.120;8.660;2023-02-28T17:15:11;4.20;;;1.90;;
13114;SDS011;6623;52.120;8.660;2023-02-28T17:17:39;3.37;;;2.00;;
13114;SDS011;6623;52.120;8.660;2023-02-28T17:20:06;3.43;;;1.80;;
13114;SDS011;6623;52.120;8.660;2023-02-28T17:22:36;4.27;;;2.30;;
13114;SDS011;6623;52.120;8.660;2023-02-28T17:25:02;2.77;;;2.20;;
13114;SDS011;6623;52.120;8.660;2023-02-28T17:27:27;3.50;;;2.63;;
13114;SDS011;6623;52.120;8.660;2023-02-28T17:29:53;3.27;;;2.40;;
13114;SDS011;6623;52.120;8.660;2023-02-28T17:32:18;5.67;;;2.83;;